createdAt,value
2023-02-24T00:02:05.065Z,87.10
2023-02-24T00:04:38.553Z,86.78
2023-02-24T00:07:11.639Z,82.10
2023-02-24T00:09:40.053Z,85.75
2023-02-24T00:12:13.065Z,86.32
2023-02-24T00:14:43.188Z,85.65
2023-02-24T00:17:14.643Z,88.45
2023-02-24T00:19:43.061Z,82.07
2023-02-24T00:22:12.897Z,85.95
2023-02-24T00:24:41.141Z,87.05
2023-02-24T00:27:11.268Z,85.85
2023-02-24T00:29:42.041Z,87.25
2023-02-24T00:32:14.888Z,86.80
2023-02-24T00:34:43.268Z,83.80
2023-02-24T00:37:12.148Z,84.10
2023-02-24T00:39:41.621Z,82.47
2023-02-24T00:42:12.273Z,84.65
2023-02-24T00:44:44.746Z,87.28
2023-02-24T00:47:14.179Z,109.97
2023-02-24T00:49:43.749Z,102.30
2023-02-24T00:52:17.108Z,106.72
2023-02-24T00:54:46.416Z,102.82
2023-02-24T00:57:18.236Z,88.57
2023-02-24T00:59:51.432Z,90.57
2023-02-24T01:02:20.524Z,87.85
2023-02-24T01:04:49.977Z,95.57
2023-02-24T01:07:18.053Z,96.28
2023-02-24T01:09:45.718Z,92.57
2023-02-24T01:12:32.591Z,90.43
2023-02-24T01:15:05.106Z,84.35
2023-02-24T01:17:36.393Z,82.50
2023-02-24T01:20:16.784Z,84.60
2023-02-24T01:22:50.803Z,82.13
2023-02-24T01:25:20.638Z,82.50
2023-02-24T01:27:49.111Z,72.68
2023-02-24T01:30:18.341Z,68.72
2023-02-24T01:32:47.443Z,69.13
2023-02-24T01:35:15.877Z,66.20
2023-02-24T01:37:45.516Z,71.05
2023-02-24T01:40:21.043Z,68.75
2023-02-24T01:42:49.672Z,68.72
2023-02-24T01:45:25.178Z,67.93
2023-02-24T01:48:00.225Z,68.15
2023-02-24T01:50:28.762Z,65.50
2023-02-24T01:53:02.221Z,64.03
2023-02-24T01:55:34.931Z,69.75
2023-02-24T01:58:10.142Z,68.77
2023-02-24T02:00:45.572Z,67.25
2023-02-24T02:03:22.425Z,69.82
2023-02-24T02:05:52.202Z,66.45
2023-02-24T02:08:23.703Z,65.18
2023-02-24T02:10:58.914Z,65.57
2023-02-24T02:13:28.166Z,69.20
2023-02-24T02:16:14.557Z,65.80
2023-02-24T02:18:56.406Z,65.72
2023-02-24T02:21:44.175Z,65.78
2023-02-24T02:24:30.670Z,63.17
2023-02-24T02:27:29.434Z,60.58
2023-02-24T02:30:32.125Z,60.97
2023-02-24T02:33:08.791Z,63.30
2023-02-24T02:35:42.841Z,61.90
2023-02-24T02:38:27.871Z,61.00
2023-02-24T02:41:11.246Z,67.50
2023-02-24T02:44:08.813Z,66.63
2023-02-24T02:46:51.425Z,66.38
2023-02-24T02:49:36.010Z,64.60
2023-02-24T02:52:10.528Z,66.57
2023-02-24T02:54:49.839Z,69.47
2023-02-24T02:57:23.901Z,70.45
2023-02-24T03:00:21.629Z,73.65
2023-02-24T03:02:56.216Z,71.25
2023-02-24T03:05:37.327Z,74.22
2023-02-24T03:08:11.580Z,79.03
2023-02-24T03:10:41.904Z,76.10
2023-02-24T03:13:13.407Z,79.47
2023-02-24T03:15:44.869Z,80.63
2023-02-24T03:18:29.176Z,77.32
2023-02-24T03:21:07.973Z,80.00
2023-02-24T03:23:46.135Z,79.03
2023-02-24T03:26:31.084Z,74.60
2023-02-24T03:29:19.275Z,78.78
2023-02-24T03:31:59.529Z,76.25
2023-02-24T03:34:59.599Z,75.45
2023-02-24T03:37:30.074Z,74.55
2023-02-24T03:40:08.377Z,75.63
2023-02-24T03:42:37.060Z,73.85
2023-02-24T03:45:06.832Z,75.53
2023-02-24T03:47:35.839Z,78.28
2023-02-24T03:50:13.422Z,72.45
2023-02-24T03:53:07.780Z,74.50
2023-02-24T03:55:48.185Z,76.15
2023-02-24T03:58:16.452Z,75.88
2023-02-24T04:01:05.676Z,78.53
2023-02-24T04:03:57.855Z,80.20
2023-02-24T04:06:51.508Z,75.90
2023-02-24T04:09:47.439Z,73.18
2023-02-24T04:12:32.271Z,74.40
2023-02-24T04:15:57.356Z,72.95
2023-02-24T04:18:34.917Z,72.75
2023-02-24T04:21:05.541Z,74.25
2023-02-24T04:23:43.761Z,75.13
2023-02-24T04:26:16.541Z,76.88
2023-02-24T04:28:48.615Z,75.93
2023-02-24T04:31:19.549Z,75.15
2023-02-24T04:33:50.520Z,71.25
2023-02-24T04:38:50.287Z,71.93
2023-02-24T04:41:21.701Z,75.00
2023-02-24T04:43:50.969Z,75.47
2023-02-24T04:46:20.323Z,73.68
2023-02-24T04:48:47.902Z,73.10
2023-02-24T04:51:15.776Z,71.68
2023-02-24T04:53:43.923Z,72.25
2023-02-24T04:56:12.191Z,73.95
2023-02-24T04:58:41.228Z,70.43
2023-02-24T05:01:11.136Z,71.93
2023-02-24T05:03:43.348Z,73.30
2023-02-24T05:06:17.210Z,73.93
2023-02-24T05:11:16.202Z,71.95
2023-02-24T05:13:46.196Z,72.80
2023-02-24T05:16:17.531Z,74.70
2023-02-24T05:18:45.633Z,72.22
2023-02-24T05:21:34.924Z,70.93
2023-02-24T05:24:11.317Z,72.82
2023-02-24T05:26:41.832Z,74.15
2023-02-24T05:29:12.565Z,71.88
2023-02-24T05:31:40.218Z,72.85
2023-02-24T05:34:09.080Z,70.07
2023-02-24T05:36:40.343Z,73.47
2023-02-24T05:39:14.626Z,70.75
2023-02-24T05:41:43.829Z,72.60
2023-02-24T05:44:14.251Z,68.85
2023-02-24T05:46:45.378Z,66.18
2023-02-24T05:49:23.545Z,69.18
2023-02-24T05:51:55.257Z,69.53
2023-02-24T05:54:32.179Z,71.93
2023-02-24T05:57:09.414Z,69.32
2023-02-24T05:59:38.712Z,67.43
2023-02-24T06:02:09.494Z,66.20
2023-02-24T06:04:40.015Z,62.72
2023-02-24T06:07:19.215Z,62.72
2023-02-24T06:09:53.604Z,61.70
2023-02-24T06:12:24.163Z,65.38
2023-02-24T06:14:53.172Z,66.13
2023-02-24T06:17:22.949Z,63.55
2023-02-24T06:19:52.815Z,63.70
2023-02-24T06:22:22.976Z,62.10
2023-02-24T06:24:50.653Z,63.75
2023-02-24T06:27:21.566Z,66.03
2023-02-24T06:29:51.173Z,65.53
2023-02-24T06:32:23.683Z,65.55
2023-02-24T06:34:52.060Z,62.22
2023-02-24T06:37:20.463Z,61.80
2023-02-24T06:39:48.486Z,61.78
2023-02-24T06:42:16.605Z,63.30
2023-02-24T06:44:44.090Z,62.40
2023-02-24T06:47:14.388Z,63.38
2023-02-24T06:49:45.016Z,60.92
2023-02-24T06:52:18.588Z,62.05
2023-02-24T06:54:49.755Z,62.33
2023-02-24T06:57:18.082Z,66.30
2023-02-24T06:59:46.326Z,64.10
2023-02-24T07:02:14.171Z,69.97
2023-02-24T07:04:44.149Z,66.75
2023-02-24T07:07:14.608Z,70.05
2023-02-24T07:09:45.429Z,69.55
2023-02-24T07:12:13.674Z,69.93
2023-02-24T07:14:41.742Z,69.57
2023-02-24T07:17:10.361Z,72.45
2023-02-24T07:19:38.156Z,69.80
2023-02-24T07:22:06.173Z,73.68
2023-02-24T07:24:37.327Z,72.07
2023-02-24T07:27:12.644Z,69.78
2023-02-24T07:29:40.591Z,71.85
2023-02-24T07:32:09.643Z,68.35
2023-02-24T07:34:40.676Z,70.30
2023-02-24T07:37:09.745Z,73.25
2023-02-24T07:39:39.499Z,72.35
2023-02-24T07:42:10.107Z,71.93
2023-02-24T07:44:46.907Z,67.60
2023-02-24T07:47:16.274Z,71.55
2023-02-24T07:49:45.404Z,72.18
2023-02-24T07:52:14.340Z,72.85
2023-02-24T07:54:43.274Z,71.68
2023-02-24T07:57:14.207Z,72.05
2023-02-24T07:59:45.130Z,75.35
2023-02-24T08:02:13.924Z,71.78
2023-02-24T08:04:44.627Z,75.90
2023-02-24T08:07:14.632Z,80.53
2023-02-24T08:09:45.870Z,78.45
2023-02-24T08:12:18.497Z,76.97
2023-02-24T08:14:51.609Z,77.18
2023-02-24T08:17:23.100Z,78.82
2023-02-24T08:20:12.636Z,80.32
2023-02-24T08:22:44.293Z,76.78
2023-02-24T08:25:18.750Z,77.35
2023-02-24T08:28:06.734Z,73.75
2023-02-24T08:30:40.294Z,74.75
2023-02-24T08:33:16.133Z,75.90
2023-02-24T08:35:46.763Z,78.80
2023-02-24T08:38:19.899Z,77.03
2023-02-24T08:40:55.173Z,80.03
2023-02-24T08:43:34.531Z,78.72
2023-02-24T08:46:25.618Z,79.10
2023-02-24T08:49:00.876Z,79.53
2023-02-24T08:51:34.875Z,84.20
2023-02-24T08:54:11.009Z,82.38
2023-02-24T08:56:43.708Z,80.80
2023-02-24T08:59:32.105Z,79.72
2023-02-24T09:02:32.355Z,85.57
2023-02-24T09:05:07.960Z,83.97
2023-02-24T09:07:39.014Z,83.47
2023-02-24T09:10:11.963Z,84.40
2023-02-24T09:12:42.504Z,84.30
2023-02-24T09:15:12.021Z,81.72
2023-02-24T09:17:45.602Z,80.80
2023-02-24T09:20:27.760Z,79.82
2023-02-24T09:23:03.338Z,75.63
2023-02-24T09:25:41.682Z,77.75
2023-02-24T09:28:11.085Z,77.95
2023-02-24T09:30:51.445Z,81.60
2023-02-24T09:33:29.058Z,84.45
2023-02-24T09:36:13.082Z,81.45
2023-02-24T09:39:06.964Z,83.65
2023-02-24T09:41:56.318Z,83.18
2023-02-24T09:44:40.431Z,82.45
2023-02-24T09:47:45.332Z,80.35
2023-02-24T09:50:59.120Z,78.78
2023-02-24T09:53:18.877Z,76.82
2023-02-24T09:56:22.248Z,79.95
2023-02-24T09:58:58.617Z,75.95
2023-02-24T10:01:49.679Z,78.47
2023-02-24T10:04:23.033Z,77.35
2023-02-24T10:06:58.969Z,78.85
2023-02-24T10:09:35.161Z,79.20
2023-02-24T10:12:40.215Z,75.97
2023-02-24T10:15:19.155Z,74.53
2023-02-24T10:18:27.322Z,74.80
2023-02-24T10:21:04.132Z,73.40
2023-02-24T10:23:47.491Z,74.40
2023-02-24T10:26:34.843Z,72.90
2023-02-24T10:29:29.517Z,73.70
2023-02-24T10:32:23.956Z,71.63
2023-02-24T10:34:53.740Z,71.13
2023-02-24T10:37:28.986Z,70.13
2023-02-24T10:40:09.783Z,72.40
2023-02-24T10:42:46.011Z,68.68
2023-02-24T10:45:25.212Z,69.65
2023-02-24T10:47:58.426Z,69.97
2023-02-24T10:50:26.200Z,68.68
2023-02-24T10:53:05.867Z,69.93
2023-02-24T10:55:45.538Z,67.45
2023-02-24T10:58:28.339Z,67.45
2023-02-24T11:01:07.075Z,67.38
2023-02-24T11:03:42.573Z,67.95
2023-02-24T11:06:30.929Z,67.80
2023-02-24T11:09:19.454Z,65.35
2023-02-24T11:12:06.867Z,64.75
2023-02-24T11:15:06.047Z,64.53
2023-02-24T11:17:37.009Z,60.55
2023-02-24T11:20:11.034Z,67.35
2023-02-24T11:22:42.123Z,68.18
2023-02-24T11:25:21.004Z,67.70
2023-02-24T11:27:49.278Z,70.20
2023-02-24T11:30:26.688Z,68.45
2023-02-24T11:33:00.518Z,67.10
2023-02-24T11:35:37.795Z,66.15
2023-02-24T11:38:37.566Z,63.22
2023-02-24T11:41:26.185Z,61.08
2023-02-24T11:44:04.176Z,65.80
2023-02-24T11:46:42.081Z,63.33
2023-02-24T11:49:45.667Z,63.33
2023-02-24T11:52:27.403Z,65.25
2023-02-24T11:54:58.394Z,65.88
2023-02-24T11:57:48.281Z,64.90
2023-02-24T12:00:23.555Z,63.70
2023-02-24T12:03:02.197Z,63.40
2023-02-24T12:05:39.200Z,61.08
2023-02-24T12:08:09.834Z,63.22
2023-02-24T12:10:51.013Z,67.50
2023-02-24T12:13:30.355Z,65.75
2023-02-24T12:16:07.997Z,69.70
2023-02-24T12:18:40.997Z,68.35
2023-02-24T12:21:13.224Z,69.55
2023-02-24T12:23:44.391Z,71.00
2023-02-24T12:26:28.467Z,68.65
2023-02-24T12:29:02.529Z,70.32
2023-02-24T12:31:52.219Z,60.35
2023-02-24T12:34:31.963Z,67.07
2023-02-24T12:37:08.025Z,62.80
2023-02-24T12:39:57.140Z,60.92
2023-02-24T12:43:17.524Z,59.97
2023-02-24T12:46:15.120Z,58.60
2023-02-24T12:49:34.952Z,61.30
2023-02-24T12:52:07.929Z,57.38
2023-02-24T12:54:51.108Z,56.13
2023-02-24T12:57:27.677Z,59.53
2023-02-24T12:59:58.088Z,56.80
2023-02-24T13:03:06.592Z,59.63
2023-02-24T13:05:52.220Z,55.15
2023-02-24T13:09:08.573Z,53.85
2023-02-24T13:11:39.258Z,54.25
2023-02-24T13:14:20.642Z,53.88
2023-02-24T13:16:49.086Z,55.45
2023-02-24T13:19:29.567Z,54.40
2023-02-24T13:22:03.605Z,54.33
2023-02-24T13:24:32.896Z,54.28
2023-02-24T13:27:21.179Z,56.28
2023-02-24T13:29:58.093Z,55.78
2023-02-24T13:32:33.175Z,57.17
2023-02-24T13:35:07.825Z,55.08
2023-02-24T13:37:38.737Z,53.85
2023-02-24T13:40:16.631Z,55.95
2023-02-24T13:43:01.257Z,53.83
2023-02-24T13:45:37.437Z,51.75
2023-02-24T13:48:24.105Z,52.53
2023-02-24T13:51:08.238Z,50.58
2023-02-24T13:53:38.488Z,49.42
2023-02-24T13:56:31.286Z,51.22
2023-02-24T13:59:24.260Z,51.78
2023-02-24T14:02:00.115Z,50.40
2023-02-24T14:04:31.236Z,52.20
2023-02-24T14:07:09.058Z,50.05
2023-02-24T14:09:43.299Z,48.22
2023-02-24T14:12:29.885Z,49.63
2023-02-24T14:14:58.050Z,44.58
2023-02-24T14:17:32.130Z,45.47
2023-02-24T14:20:14.358Z,43.78
2023-02-24T14:22:50.483Z,46.75
2023-02-24T14:25:18.260Z,44.65
2023-02-24T14:27:50.390Z,44.75
2023-02-24T14:30:34.196Z,44.75
2023-02-24T14:33:03.488Z,45.53
2023-02-24T14:35:41.938Z,46.15
2023-02-24T14:38:36.061Z,46.47
2023-02-24T14:41:25.435Z,48.80
2023-02-24T14:43:54.395Z,44.72
2023-02-24T14:46:23.809Z,47.28
2023-02-24T14:48:55.133Z,46.38
2023-02-24T14:51:28.259Z,47.72
2023-02-24T14:53:59.977Z,45.33
2023-02-24T14:56:32.887Z,48.60
2023-02-24T14:59:25.161Z,47.95
2023-02-24T15:01:55.823Z,46.55
2023-02-24T15:04:36.910Z,48.65
2023-02-24T15:07:08.464Z,45.38
2023-02-24T15:09:42.494Z,49.85
2023-02-24T15:12:13.140Z,48.70
2023-02-24T15:14:43.591Z,50.20
2023-02-24T15:17:17.246Z,50.33
2023-02-24T15:22:28.994Z,45.30
2023-02-24T15:25:18.989Z,46.20
2023-02-24T15:27:56.289Z,46.03
2023-02-24T15:30:36.653Z,49.30
2023-02-24T15:33:19.582Z,48.05
2023-02-24T15:35:51.995Z,47.15
2023-02-24T15:38:26.134Z,46.00
2023-02-24T15:40:57.391Z,47.72
2023-02-24T15:43:34.420Z,47.50
2023-02-24T15:46:13.711Z,49.10
2023-02-24T15:48:53.298Z,47.28
2023-02-24T15:51:45.432Z,49.40
2023-02-24T15:54:16.861Z,51.72
2023-02-24T15:56:46.650Z,47.40
2023-02-24T15:59:16.455Z,47.63
2023-02-24T16:01:44.671Z,49.00
2023-02-24T16:04:12.331Z,46.92
2023-02-24T16:06:43.961Z,48.67
2023-02-24T16:09:16.809Z,45.42
2023-02-24T16:11:47.308Z,43.50
2023-02-24T16:14:18.570Z,43.80
2023-02-24T16:16:46.576Z,42.80
2023-02-24T16:19:15.864Z,42.85
2023-02-24T16:21:44.380Z,43.92
2023-02-24T16:24:13.041Z,46.55
2023-02-24T16:26:41.866Z,45.53
2023-02-24T16:29:15.289Z,46.08
2023-02-24T16:31:43.461Z,46.63
2023-02-24T16:34:15.000Z,47.33
2023-02-24T16:36:44.062Z,45.20
2023-02-24T16:39:14.857Z,49.55
2023-02-24T16:41:42.960Z,47.10
2023-02-24T16:44:10.943Z,47.08
2023-02-24T16:46:41.293Z,45.78
2023-02-24T16:49:10.690Z,45.88
2023-02-24T16:51:40.552Z,45.85
2023-02-24T16:54:08.802Z,47.90
2023-02-24T16:56:36.609Z,49.03
2023-02-24T16:59:05.149Z,48.95
2023-02-24T17:01:33.928Z,48.30
2023-02-24T17:04:05.263Z,48.78
2023-02-24T17:06:33.860Z,49.67
2023-02-24T17:09:02.821Z,48.10
2023-02-24T17:11:30.929Z,47.08
2023-02-24T17:13:59.893Z,47.60
2023-02-24T17:16:28.618Z,48.30
2023-02-24T17:18:56.859Z,48.28
2023-02-24T17:21:25.251Z,49.58
2023-02-24T17:23:52.853Z,50.78
2023-02-24T17:26:21.477Z,51.72
2023-02-24T17:28:49.869Z,51.90
2023-02-24T17:31:17.586Z,53.83
2023-02-24T17:33:46.049Z,53.30
2023-02-24T17:36:13.701Z,54.50
2023-02-24T17:38:41.216Z,52.88
2023-02-24T17:41:09.204Z,52.75
2023-02-24T17:43:37.025Z,51.03
2023-02-24T17:46:07.150Z,52.35
2023-02-24T17:48:35.422Z,53.08
2023-02-24T17:51:03.258Z,50.38
2023-02-24T17:53:31.851Z,54.65
2023-02-24T17:56:05.505Z,51.20
2023-02-24T18:01:02.620Z,52.10
2023-02-24T18:03:32.629Z,53.10
2023-02-24T18:06:05.393Z,53.97
2023-02-24T18:08:34.877Z,52.47
2023-02-24T18:11:03.957Z,50.63
2023-02-24T18:13:33.437Z,52.53
2023-02-24T18:16:02.184Z,53.60
2023-02-24T18:18:30.478Z,53.88
2023-02-24T18:21:02.943Z,54.97
2023-02-24T18:23:32.233Z,55.17
2023-02-24T18:26:04.953Z,54.80
2023-02-24T18:28:33.447Z,53.83
2023-02-24T18:31:03.276Z,54.42
2023-02-24T18:33:31.105Z,53.90
2023-02-24T18:36:00.710Z,53.38
2023-02-24T18:38:29.592Z,54.15
2023-02-24T18:41:15.696Z,53.67
2023-02-24T18:43:43.527Z,55.88
2023-02-24T18:46:14.073Z,54.33
2023-02-24T18:48:44.558Z,53.90
2023-02-24T18:51:14.931Z,56.72
2023-02-24T18:53:43.441Z,56.15
2023-02-24T18:56:17.757Z,59.25
2023-02-24T18:58:47.025Z,56.72
2023-02-24T19:01:21.183Z,60.03
2023-02-24T19:03:51.111Z,57.63
2023-02-24T19:06:21.547Z,56.85
2023-02-24T19:08:55.288Z,59.20
2023-02-24T19:11:23.151Z,61.28
2023-02-24T19:13:52.048Z,56.35
2023-02-24T19:16:20.461Z,57.85
2023-02-24T19:18:53.489Z,60.03
2023-02-24T19:21:21.844Z,59.67
2023-02-24T19:23:49.414Z,57.83
2023-02-24T19:26:21.281Z,59.85
2023-02-24T19:28:49.122Z,61.35
2023-02-24T19:31:23.667Z,60.90
2023-02-24T19:33:57.362Z,59.90
2023-02-24T19:38:54.346Z,60.80
2023-02-24T19:41:21.934Z,58.35
2023-02-24T19:43:50.360Z,61.28
2023-02-24T19:46:19.079Z,59.72
2023-02-24T19:48:48.530Z,59.85
2023-02-24T19:51:23.029Z,58.67
2023-02-24T19:53:55.999Z,57.70
2023-02-24T19:56:29.401Z,59.93
2023-02-24T19:58:58.784Z,61.03
2023-02-24T20:01:27.960Z,60.08
2023-02-24T20:03:57.705Z,61.70
2023-02-24T20:06:31.241Z,61.22
2023-02-24T20:09:00.475Z,60.25
2023-02-24T20:11:29.892Z,63.55
2023-02-24T20:13:57.846Z,59.80
2023-02-24T20:16:27.284Z,60.92
2023-02-24T20:18:55.461Z,66.40
2023-02-24T20:21:23.874Z,64.80
2023-02-24T20:23:51.987Z,66.50
2023-02-24T20:26:21.185Z,63.92
2023-02-24T20:28:49.826Z,64.55
2023-02-24T20:31:19.597Z,62.70
2023-02-24T20:33:50.957Z,61.42
2023-02-24T20:36:23.812Z,62.47
2023-02-24T20:38:52.237Z,64.80
2023-02-24T20:41:21.909Z,64.28
2023-02-24T20:43:50.949Z,66.35
2023-02-24T20:46:29.398Z,66.20
2023-02-24T20:49:02.217Z,65.65
2023-02-24T20:51:31.733Z,65.20
2023-02-24T20:53:59.940Z,62.80
2023-02-24T20:56:33.106Z,61.97
2023-02-24T20:59:04.228Z,65.97
2023-02-24T21:01:33.638Z,62.10
2023-02-24T21:04:02.099Z,63.38
2023-02-24T21:06:30.863Z,63.92
2023-02-24T21:08:58.987Z,64.60
2023-02-24T21:11:29.797Z,65.32
2023-02-24T21:13:58.640Z,66.45
2023-02-24T21:16:28.257Z,64.47
2023-02-24T21:18:58.022Z,65.20
2023-02-24T21:21:26.648Z,65.53
2023-02-24T21:23:55.229Z,65.00
2023-02-24T21:26:26.718Z,62.60
2023-02-24T21:28:57.607Z,61.05
2023-02-24T21:31:27.414Z,62.25
2023-02-24T21:33:56.189Z,65.15
2023-02-24T21:36:25.860Z,64.47
2023-02-24T21:38:54.722Z,65.43
2023-02-24T21:41:23.886Z,63.88
2023-02-24T21:43:54.916Z,64.30
2023-02-24T21:46:28.259Z,62.47
2023-02-24T21:49:00.357Z,64.95
2023-02-24T21:51:28.311Z,66.75
2023-02-24T21:53:56.960Z,62.92
2023-02-24T21:56:28.640Z,66.53
2023-02-24T21:59:02.303Z,65.20
2023-02-24T22:01:39.790Z,65.40
2023-02-24T22:04:10.722Z,65.45
2023-02-24T22:06:40.757Z,65.28
2023-02-24T22:09:10.164Z,68.05
2023-02-24T22:11:41.038Z,66.40
2023-02-24T22:14:12.028Z,64.82
2023-02-24T22:16:40.819Z,61.13
2023-02-24T22:19:08.819Z,66.18
2023-02-24T22:21:39.238Z,66.90
2023-02-24T22:24:07.128Z,68.57
2023-02-24T22:26:34.729Z,65.65
2023-02-24T22:29:03.884Z,67.88
2023-02-24T22:31:33.203Z,66.88
2023-02-24T22:34:01.876Z,67.85
2023-02-24T22:36:33.570Z,66.95
2023-02-24T22:39:02.933Z,71.00
2023-02-24T22:41:33.262Z,71.32
2023-02-24T22:44:03.647Z,71.40
2023-02-24T22:46:37.472Z,72.43
2023-02-24T22:49:05.980Z,70.65
2023-02-24T22:51:34.119Z,72.57
2023-02-24T22:54:02.636Z,65.60
2023-02-24T22:56:31.249Z,72.63
2023-02-24T22:59:00.782Z,70.25
2023-02-24T23:01:30.950Z,69.72
2023-02-24T23:04:02.692Z,71.97
2023-02-24T23:06:31.480Z,70.30
2023-02-24T23:09:01.214Z,71.38
2023-02-24T23:11:32.426Z,70.45
2023-02-24T23:14:04.186Z,72.35
2023-02-24T23:16:34.565Z,68.88
2023-02-24T23:19:12.986Z,68.40
2023-02-24T23:21:43.255Z,72.57
2023-02-24T23:24:14.289Z,72.80
2023-02-24T23:26:45.894Z,72.68
2023-02-24T23:29:17.660Z,70.22
2023-02-24T23:31:46.594Z,73.78
2023-02-24T23:34:15.968Z,73.97
2023-02-24T23:36:46.482Z,70.90
2023-02-24T23:39:16.651Z,70.22
2023-02-24T23:41:44.392Z,74.80
2023-02-24T23:44:12.615Z,77.43
2023-02-24T23:46:41.848Z,73.47
2023-02-24T23:49:09.998Z,74.80
2023-02-24T23:51:48.105Z,75.70
2023-02-24T23:54:18.279Z,76.70
2023-02-24T23:56:46.902Z,77.63
2023-02-24T23:59:15.134Z,75.38
